Latest Coastal Weather Observations for Larapuna (Eddystone Point)

IDT60701

Issued at 6:02 pm EDT Friday 3 December 2021 (issued every 10 minutes, with the page automatically refreshed every 10 minutes)

About coastal observations | Map of coastal stations | Coastal observations for TAS | Marine services | Other Formats
Station Details ID: 092045 Name: LARAPUNA (EDDYSTONE POINT) Lat: -40.99 Lon: 148.35 Height: 19.7 m
Data from the previous 72 hours. | See also: Recent months at Larapuna (Eddystone Point)
Date/Time
EDT
Wind Sea
Height
m
Swell Vis
km
Cloud Weather Temp
°C
Press
MSL
hPa
Rain since
9am
mm
Dir  Spd
kts
Gust
kts
Height
m
Period
s
Dir
03/05:30pm NNW 14 18 - - - - - - - 16.2 1015.6 0.2
03/05:00pm NNE 12 14 - - - - - - - 16.3 1016.0 0.2
03/04:30pm NNE 11 13 - - - - - - - 17.1 1016.1 0.2
03/04:00pm NE 13 15 - - - - - - - 18.5 1016.2 0.2
03/03:30pm NE 11 13 - - - - - - - 17.4 1016.7 0.2
03/03:00pm ENE 10 12 - - - - - - - 18.5 1017.0 0.2
03/02:30pm ENE 9 11 - - - - - - - 20.5 1016.9 0.2
03/02:00pm E 9 11 - - - - - - - 19.5 1016.9 0.2
03/01:30pm ESE 11 14 - - - - - - - 19.7 1016.9 0.2
03/01:00pm ESE 11 14 - - - - - - - 20.1 1017.0 0.2
03/12:30pm ESE 11 14 - - - - - - - 19.3 1017.0 0.2
03/12:00pm SE 11 15 - - - - - - - 19.6 1017.0 0.2
03/11:30am SE 12 15 - - - - - - - 19.9 1017.1 0.2
03/11:00am SSE 14 16 - - - - - - - 18.8 1017.0 0.2
03/10:30am SSE 15 17 - - - - - - - 18.6 1017.1 0.0
03/10:00am SSE 15 17 - - - - - - - 18.1 1016.9 0.0
03/09:30am SSE 17 20 - - - - - - - 17.7 1016.4 0.0
03/09:00am SE 14 19 - - - - - - - 16.8 1016.3 0.8
03/08:30am SE 14 18 - - - - - - - 17.5 1015.8 0.8
03/08:00am SE 14 19 - - - - - - - 16.4 1015.5 0.8
03/07:30am SE 17 21 - - - - - - - 15.5 1015.1 0.8
03/07:00am SE 17 23 - - - - - - - 15.0 1014.4 0.8
03/06:30am SE 17 21 - - - - - - - 15.2 1014.0 0.8
03/06:00am SSE 18 22 - - - - - - - 15.0 1013.3 0.8
03/05:30am SSE 10 18 - - - - - - - 15.0 1012.8 0.8
03/05:00am W 6 9 - - - - - - - 12.6 1012.2 0.8
03/04:30am NW 10 13 - - - - - - - 13.5 1011.5 0.8
03/04:00am N 7 9 - - - - - - - 14.1 1011.5 0.8
03/03:30am NNW 5 6 - - - - - - - 14.5 1011.0 0.8
03/03:00am WNW 5 8 - - - - - - - 14.6 1010.9 0.8
03/02:30am WNW 6 9 - - - - - - - 14.9 1011.2 0.8
03/02:00am NNW 8 11 - - - - - - - 15.0 1011.2 0.8
03/01:30am WNW 10 13 - - - - - - - 15.0 1010.9 0.6
03/01:00am WNW 9 13 - - - - - - - 15.1 1011.2 0.6
03/12:30am WNW 10 14 - - - - - - - 15.2 1011.4 0.6
03/12:00am WNW 9 13 - - - - - - - 15.3 1011.3 0.6
 
Date/Time
EDT
Wind Sea
Height
m
Swell Vis
km
Cloud Weather Temp
°C
Press
MSL
hPa
Rain since
9am
mm
Dir  Spd
kts
Gust
kts
Height
m
Period
s
Dir
02/11:30pm W 15 21 - - - - - - - 15.6 1011.5 0.6
02/11:00pm W 17 23 - - - - - - - 16.3 1012.1 0.6
02/10:30pm W 14 21 - - - - - - - 16.6 1012.6 0.2
02/10:00pm WNW 18 26 - - - - - - - 17.1 1013.8 0.2
02/09:40pm NW 19 31 - - - - - - - 17.9 1014.0 0.2
02/09:30pm NNW 18 27 - - - - - - - 17.5 1013.9 0.2
02/09:27pm NNW 15 26 - - - - - - - 17.5 1013.6 0.2
02/09:00pm NNW 13 16 - - - - - - - 17.3 1011.6 0.2
02/08:30pm NNW 11 13 - - - - - - - 17.1 1011.2 0.2
02/08:00pm N 12 14 - - - - - - - 17.1 1010.4 0.2
02/07:30pm N 8 12 - - - - - - - 17.7 1010.8 0.2
02/07:00pm NNW 8 10 - - - - - - - 17.7 1011.2 0.2
02/06:30pm N 11 14 - - - - - - - 17.5 1011.3 0.2
02/06:00pm N 13 15 - - - - - - - 17.9 1011.3 0.2
02/05:30pm NNW 13 16 - - - - - - - 18.8 1011.6 0.2
02/05:00pm N 16 19 - - - - - - - 18.5 1011.7 0.2
02/04:30pm N 16 19 - - - - - - - 19.5 1012.0 0.2
02/04:00pm N 17 21 - - - - - - - 18.7 1012.3 0.2
02/03:30pm N 15 19 - - - - - - - 18.4 1012.7 0.2
02/03:00pm N 13 17 - - - - - - - 19.3 1013.3 0.2
02/02:30pm NNW 11 14 - - - - - - - 18.4 1013.7 0.2
02/02:00pm N 13 17 - - - - - - - 19.6 1013.7 0.2
02/01:30pm NNE 18 22 - - - - - - - 18.8 1013.6 0.2
02/01:00pm N 13 18 - - - - - - - 18.9 1014.2 0.2
02/12:30pm N 10 13 - - - - - - - 19.5 1014.5 0.0
02/12:00pm N 13 17 - - - - - - - 18.5 1014.7 0.0
02/11:30am N 14 16 - - - - - - - 17.3 1014.8 0.0
02/11:00am N 12 15 - - - - - - - 17.0 1015.0 0.0
02/10:30am N 11 13 - - - - - - - 17.0 1015.2 0.0
02/10:00am N 11 14 - - - - - - - 16.6 1015.1 0.0
02/09:30am N 8 10 - - - - - - - 17.8 1015.2 0.0
02/09:00am N 9 11 - - - - - - - 17.4 1015.0 0.0
02/08:30am N 9 11 - - - - - - - 16.7 1014.9 0.0
02/08:00am N 8 9 - - - - - - - 16.5 1014.8 0.0
02/07:30am N 6 8 - - - - - - - 16.2 1014.6 0.0
02/07:00am NNW 6 8 - - - - - - - 15.9 1014.4 0.0
02/06:30am NNW 8 9 - - - - - - - 15.5 1014.3 0.0
02/06:00am NNW 8 10 - - - - - - - 15.2 1014.3 0.0
02/05:30am N 8 9 - - - - - - - 15.3 1014.3 0.0
02/05:00am N 8 9 - - - - - - - 15.5 1014.1 0.0
02/04:30am N 8 9 - - - - - - - 15.4 1013.8 0.0
02/04:00am N 9 11 - - - - - - - 15.8 1013.9 0.0
02/03:30am N 8 10 - - - - - - - 15.7 1014.0 0.0
02/03:00am N 9 10 - - - - - - - 16.1 1014.1 0.0
02/02:30am NNW 9 10 - - - - - - - 16.0 1014.1 0.0
02/02:00am NNW 9 12 - - - - - - - 15.9 1014.1 0.0
02/01:30am NNW 10 12 - - - - - - - 15.8 1014.3 0.0
02/01:00am NNW 10 12 - - - - - - - 15.9 1014.6 0.0
02/12:30am N 10 12 - - - - - - - 16.0 1014.6 0.0
02/12:00am N 9 11 - - - - - - - 16.1 1014.8 0.0
 
Date/Time
EDT
Wind Sea
Height
m
Swell Vis
km
Cloud Weather Temp
°C
Press
MSL
hPa
Rain since
9am
mm
Dir  Spd
kts
Gust
kts
Height
m
Period
s
Dir
01/11:30pm N 12 14 - - - - - - - 16.5 1014.9 0.0
01/11:00pm N 13 16 - - - - - - - 16.6 1014.9 0.0
01/10:30pm N 12 14 - - - - - - - 16.6 1014.9 0.0
01/10:00pm N 14 17 - - - - - - - 16.7 1015.0 0.0
01/09:30pm N 12 15 - - - - - - - 16.9 1014.6 0.0
01/09:00pm N 11 12 - - - - - - - 16.9 1014.5 0.0
01/08:30pm N 9 11 - - - - - - - 16.8 1014.4 0.0
01/08:00pm N 11 13 - - - - - - - 17.0 1014.3 0.0
01/07:30pm N 10 12 - - - - - - - 17.3 1014.0 0.0
01/07:00pm N 9 11 - - - - - - - 17.6 1013.6 0.0
01/06:30pm N 9 11 - - - - - - - 18.6 1013.4 0.0
01/06:00pm N 9 11 - - - - - - - 18.1 1013.4 0.0
01/05:30pm N 13 15 - - - - - - - 17.7 1013.2 0.0
01/05:00pm N 12 15 - - - - - - - 18.2 1013.4 0.0
01/04:30pm NNE 15 16 - - - - - - - 18.8 1013.5 0.0
01/04:00pm NNE 15 17 - - - - - - - 18.3 1013.6 0.0
01/03:30pm N 16 19 - - - - - - - 18.9 1013.9 0.0
01/03:00pm NNE 16 18 - - - - - - - 19.1 1014.1 0.0
01/02:30pm N 14 16 - - - - - - - 19.0 1014.3 0.0
01/02:00pm N 13 15 - - - - - - - 19.8 1014.4 0.0
01/01:30pm N 11 14 - - - - - - - 19.4 1014.6 0.0
01/01:00pm N 10 12 - - - - - - - 19.4 1014.8 0.0
01/12:30pm N 9 11 - - - - - - - 20.3 1015.1 0.0
01/12:00pm N 9 11 - - - - - - - 19.5 1014.9 0.0
01/11:30am N 8 10 - - - - - - - 19.0 1015.0 0.0
01/11:00am N 8 10 - - - - - - - 18.8 1015.1 0.0
01/10:30am N 8 9 - - - - - - - 19.1 1015.1 0.0
01/10:00am N 7 8 - - - - - - - 19.2 1015.3 0.0
01/09:30am N 6 7 - - - - - - - 18.0 1015.4 0.0
01/09:00am N 5 6 - - - - - - - 17.4 1015.4 0.0
01/08:30am N 6 7 - - - - - - - 17.4 1015.3 0.0
01/08:00am NNE 6 7 - - - - - - - 16.9 1015.1 0.0
01/07:30am NNE 5 6 - - - - - - - 16.5 1015.0 0.0
01/07:00am NNE 4 5 - - - - - - - 16.1 1015.0 0.0
01/06:30am N 4 6 - - - - - - - 15.4 1014.9 0.0
01/06:00am N 4 5 - - - - - - - 15.1 1014.8 0.0
01/05:00am NNE 4 5 - - - - - - - 15.2 1014.7 0.0
01/04:30am NNE 6 7 - - - - - - - 15.3 1014.5 0.0
01/04:00am NNE 8 8 - - - - - - - 15.4 1014.6 0.0
01/03:30am NNE 10 12 - - - - - - - 15.5 1014.7 0.0
01/03:00am NNE 9 11 - - - - - - - 15.4 1014.9 0.0
01/02:30am NNE 9 11 - - - - - - - 15.4 1015.2 0.0
01/02:00am NNE 9 10 - - - - - - - 15.4 1015.5 0.0
01/01:30am NE 6 8 - - - - - - - 15.2 1015.6 0.0
01/01:00am NNW 4 5 - - - - - - - 15.3 1016.1 0.0
01/12:30am N 5 7 - - - - - - - 15.4 1016.3 0.0
01/12:00am NNE 9 11 - - - - - - - 15.8 1016.3 0.0
 
Date/Time
EDT
Wind Sea
Height
m
Swell Vis
km
Cloud Weather Temp
°C
Press
MSL
hPa
Rain since
9am
mm
Dir  Spd
kts
Gust
kts
Height
m
Period
s
Dir
30/11:30pm NNE 9 11 - - - - - - - 15.9 1016.6 0.0
30/11:00pm NNE 11 12 - - - - - - - 15.9 1016.6 0.0
30/10:30pm NNE 10 12 - - - - - - - 15.8 1016.9 0.0
30/10:00pm NNE 11 13 - - - - - - - 15.8 1016.9 0.0
30/09:30pm NNE 10 12 - - - - - - - 15.8 1016.7 0.0
30/09:00pm NNE 11 12 - - - - - - - 15.8 1016.3 0.0
30/08:30pm NNE 11 12 - - - - - - - 15.8 1016.2 0.0
30/08:00pm NNE 11 13 - - - - - - - 15.9 1016.3 0.0
30/07:30pm NNE 11 13 - - - - - - - 16.1 1016.3 0.0
30/07:00pm NNE 13 14 - - - - - - - 16.5 1016.2 0.0
30/06:30pm NNE 12 14 - - - - - - - 16.8 1016.2 0.0

Other formats

Comma delimited format used in spreadsheet applications
http://www.bom.gov.au/fwo/IDT60701/IDT60701.94983.axf

JavaScript Object Notation format (JSON) in row-major order
http://www.bom.gov.au/fwo/IDT60701/IDT60701.94983.json

Data quality

Most of these data are generated automatically and are frequently updated. Quality checks on data are not normally performed. It is possible for incorrect values to appear. Refer to information at About Latest Weather Observations and please check the disclaimer before using these data.